createdAt,value
2019-04-21T00:00:31.848Z,60.36
2019-04-21T00:03:08.852Z,60.32
2019-04-21T00:05:53.281Z,60.85
2019-04-21T00:08:41.572Z,61.55
2019-04-21T00:11:05.908Z,61.69
2019-04-21T00:13:27.945Z,61.74
2019-04-21T00:15:53.161Z,62.00
2019-04-21T00:18:29.651Z,62.49
2019-04-21T00:21:09.840Z,63.13
2019-04-21T00:23:42.101Z,63.40
2019-04-21T00:26:16.161Z,63.41
2019-04-21T00:28:54.035Z,63.64
2019-04-21T00:31:18.193Z,63.43
2019-04-21T00:33:34.302Z,64.17
2019-04-21T00:36:07.217Z,63.72
2019-04-21T00:39:02.379Z,63.28
2019-04-21T00:41:23.499Z,63.56
2019-04-21T00:43:46.110Z,64.64
2019-04-21T00:46:10.096Z,65.51
2019-04-21T00:48:53.439Z,65.75
2019-04-21T00:54:04.170Z,65.41
2019-04-21T00:56:27.460Z,65.20
2019-04-21T00:58:59.312Z,64.81
2019-04-21T01:01:27.978Z,65.06
2019-04-21T01:03:57.718Z,64.94
2019-04-21T01:06:33.464Z,64.49
2019-04-21T01:09:01.277Z,65.71
2019-04-21T01:11:34.688Z,66.38
2019-04-21T01:14:05.147Z,67.54
2019-04-21T01:16:37.414Z,68.15
2019-04-21T01:19:01.938Z,68.25
2019-04-21T01:21:14.040Z,67.73
2019-04-21T01:23:42.250Z,66.92
2019-04-21T01:26:28.623Z,65.42
2019-04-21T01:29:00.080Z,65.14
2019-04-21T01:31:36.623Z,63.91
2019-04-21T01:34:08.404Z,65.89
2019-04-21T01:36:35.881Z,65.88
2019-04-21T01:39:18.105Z,67.33
2019-04-21T01:41:43.105Z,68.29
2019-04-21T01:44:07.443Z,68.26
2019-04-21T01:46:33.963Z,68.23
2019-04-21T01:49:06.764Z,68.54
2019-04-21T01:52:02.922Z,68.42
2019-04-21T01:54:33.250Z,69.09
2019-04-21T01:57:02.112Z,69.29
2019-04-21T01:59:26.857Z,69.01
2019-04-21T02:02:08.109Z,69.35
2019-04-21T02:04:41.870Z,69.19
2019-04-21T02:07:10.248Z,69.63
2019-04-21T02:10:00.810Z,69.95
2019-04-21T02:12:13.407Z,70.05
2019-04-21T02:14:50.500Z,70.37
2019-04-21T02:17:17.354Z,71.25
2019-04-21T02:19:45.102Z,70.36
2019-04-21T02:22:19.236Z,70.36
2019-04-21T02:27:19.164Z,70.21
2019-04-21T02:29:47.161Z,70.35
2019-04-21T02:32:24.757Z,70.77
2019-04-21T02:35:12.390Z,70.29
2019-04-21T02:40:04.967Z,69.21
2019-04-21T02:42:37.706Z,68.54
2019-04-21T02:45:09.196Z,69.49
2019-04-21T02:47:48.615Z,70.37
2019-04-21T02:50:13.836Z,71.74
2019-04-21T02:52:53.915Z,70.96
2019-04-21T02:55:10.866Z,71.56
2019-04-21T02:57:43.466Z,71.56
2019-04-21T03:00:28.957Z,72.25
2019-04-21T03:03:06.976Z,71.79
2019-04-21T03:05:45.426Z,71.75
2019-04-21T03:08:18.754Z,72.11
2019-04-21T03:10:53.514Z,71.37
2019-04-21T03:13:31.680Z,71.37
2019-04-21T03:15:59.886Z,71.31
2019-04-21T03:18:28.037Z,71.63
2019-04-21T03:21:00.249Z,70.41
2019-04-21T03:23:29.808Z,70.41
2019-04-21T03:25:52.000Z,70.04
2019-04-21T03:28:30.578Z,70.45
2019-04-21T03:31:32.116Z,70.86
2019-04-21T03:34:18.289Z,70.98
2019-04-21T03:36:37.992Z,71.47
2019-04-21T03:43:44.222Z,73.25
2019-04-21T03:46:05.831Z,73.34
2019-04-21T03:48:45.554Z,73.78
2019-04-21T03:51:15.979Z,73.95
2019-04-21T03:53:41.957Z,74.04
2019-04-21T03:56:14.862Z,74.23
2019-04-21T03:58:54.180Z,74.61
2019-04-21T04:06:45.002Z,74.14
2019-04-21T04:09:21.238Z,73.65
2019-04-21T04:11:58.730Z,73.65
2019-04-21T04:14:26.636Z,73.89
2019-04-21T04:16:59.116Z,73.65
2019-04-21T04:19:30.064Z,74.15
2019-04-21T04:24:33.957Z,73.53
2019-04-21T04:26:55.228Z,73.53
2019-04-21T04:29:26.332Z,73.44
2019-04-21T04:31:47.595Z,73.44
2019-04-21T04:34:47.731Z,73.61
2019-04-21T04:37:05.415Z,72.20
2019-04-21T04:39:42.881Z,72.35
2019-04-21T04:44:54.268Z,72.92
2019-04-21T04:52:31.279Z,73.30
2019-04-21T04:54:55.838Z,72.87
2019-04-21T04:59:53.964Z,72.82
2019-04-21T05:02:27.766Z,72.32
2019-04-21T05:04:56.443Z,72.32
2019-04-21T05:07:47.817Z,72.88
2019-04-21T05:09:58.199Z,72.50
2019-04-21T05:12:22.636Z,72.86
2019-04-21T05:17:37.912Z,72.79
2019-04-21T05:20:08.756Z,73.07
2019-04-21T05:24:52.432Z,72.21
2019-04-21T05:27:29.455Z,71.47
2019-04-21T05:30:19.155Z,70.79
2019-04-21T05:32:46.212Z,69.41
2019-04-21T05:35:24.846Z,69.01
2019-04-21T05:37:47.312Z,68.88
2019-04-21T05:40:19.573Z,68.32
2019-04-21T05:42:52.535Z,67.88
2019-04-21T05:48:11.611Z,66.53
2019-04-21T05:50:32.427Z,66.20
2019-04-21T05:53:00.709Z,64.56
2019-04-21T05:55:51.749Z,64.35
2019-04-21T05:58:02.659Z,63.04
2019-04-21T06:01:06.337Z,59.74
2019-04-21T06:03:15.174Z,58.34
2019-04-21T06:05:53.506Z,55.12
2019-04-21T06:08:13.180Z,53.56
2019-04-21T06:10:47.710Z,52.46
2019-04-21T06:13:18.743Z,50.11
2019-04-21T06:15:49.972Z,46.74
2019-04-21T06:18:21.738Z,46.25
2019-04-21T06:20:49.216Z,45.44
2019-04-21T06:23:20.991Z,44.42
2019-04-21T06:26:19.842Z,42.78
2019-04-21T06:28:28.419Z,42.14
2019-04-21T06:31:05.495Z,41.10
2019-04-21T06:36:31.959Z,40.42
2019-04-21T06:41:32.707Z,39.27
2019-04-21T06:44:09.382Z,37.33
2019-04-21T06:46:35.485Z,36.84
2019-04-21T06:49:02.617Z,34.88
2019-04-21T06:51:35.775Z,35.40
2019-04-21T06:54:09.551Z,35.65
2019-04-21T06:56:45.976Z,35.83
2019-04-21T06:59:21.126Z,35.25
2019-04-21T07:01:45.608Z,35.26
2019-04-21T07:04:18.513Z,36.47
2019-04-21T07:06:42.650Z,36.32
2019-04-21T07:09:20.979Z,35.11
2019-04-21T07:11:44.495Z,34.82
2019-04-21T07:14:25.858Z,34.20
2019-04-21T07:16:46.341Z,33.84
2019-04-21T07:19:27.854Z,33.08
2019-04-21T07:21:51.303Z,32.21
2019-04-21T07:24:44.086Z,31.09
2019-04-21T07:27:03.971Z,29.92
2019-04-21T07:29:39.508Z,30.62
2019-04-21T07:32:11.650Z,29.98
2019-04-21T07:34:38.392Z,29.71
2019-04-21T07:37:13.920Z,28.50
2019-04-21T07:39:40.586Z,27.88
2019-04-21T07:42:09.052Z,27.05
2019-04-21T07:44:37.961Z,26.92
2019-04-21T07:47:17.113Z,25.84
2019-04-21T07:49:53.168Z,24.50
2019-04-21T07:52:28.264Z,23.25
2019-04-21T07:55:08.002Z,21.21
2019-04-21T07:57:18.744Z,20.41
2019-04-21T08:00:06.483Z,19.78
2019-04-21T08:02:22.389Z,18.61
2019-04-21T08:05:02.870Z,17.86
2019-04-21T08:09:57.027Z,17.93
2019-04-21T08:12:25.595Z,19.02
2019-04-21T08:15:00.134Z,20.02
2019-04-21T08:17:34.865Z,19.70
2019-04-21T08:19:53.637Z,20.74
2019-04-21T08:22:32.113Z,20.32
2019-04-21T08:25:06.945Z,20.15
2019-04-21T08:27:35.409Z,21.12
2019-04-21T08:30:04.978Z,21.73
2019-04-21T08:32:46.604Z,22.27
2019-04-21T08:35:34.075Z,23.19
2019-04-21T08:37:37.069Z,25.27
2019-04-21T08:40:14.086Z,25.35
2019-04-21T08:42:38.268Z,24.87
2019-04-21T08:45:07.853Z,24.31
2019-04-21T08:47:39.852Z,25.44
2019-04-21T08:50:11.847Z,26.26
2019-04-21T08:55:19.621Z,26.71
2019-04-21T08:58:03.292Z,28.19
2019-04-21T09:00:26.102Z,29.19
2019-04-21T09:02:55.885Z,30.59
2019-04-21T09:05:26.173Z,29.58
2019-04-21T09:07:57.370Z,29.95
2019-04-21T09:10:28.122Z,30.50
2019-04-21T09:12:58.936Z,29.98
2019-04-21T09:15:32.084Z,30.73
2019-04-21T09:17:53.613Z,31.02
2019-04-21T09:20:46.018Z,32.17
2019-04-21T09:23:11.409Z,31.18
2019-04-21T09:25:48.306Z,31.09
2019-04-21T09:28:11.192Z,29.99
2019-04-21T09:30:26.361Z,29.99
2019-04-21T09:32:59.841Z,30.66
2019-04-21T09:35:31.420Z,30.77
2019-04-21T09:38:11.257Z,30.03
2019-04-21T09:40:37.296Z,30.33
2019-04-21T09:43:04.737Z,30.18
2019-04-21T09:45:30.822Z,29.60
2019-04-21T09:48:06.177Z,29.74
2019-04-21T09:50:34.543Z,28.43
2019-04-21T09:53:14.557Z,29.37
2019-04-21T09:55:43.971Z,28.86
2019-04-21T09:58:18.497Z,29.92
2019-04-21T10:00:45.745Z,28.72
2019-04-21T10:03:11.970Z,28.86
2019-04-21T10:05:38.481Z,28.59
2019-04-21T10:08:08.182Z,29.03
2019-04-21T10:10:36.851Z,28.90
2019-04-21T10:13:05.244Z,28.17
2019-04-21T10:15:33.629Z,27.82
2019-04-21T10:18:15.137Z,28.68
2019-04-21T10:20:44.776Z,27.89
2019-04-21T10:23:15.711Z,28.48
2019-04-21T10:25:48.915Z,27.75
2019-04-21T10:28:28.774Z,27.20
2019-04-21T10:31:02.638Z,27.66
2019-04-21T10:36:44.871Z,28.26
2019-04-21T10:39:19.884Z,28.18
2019-04-21T10:41:53.281Z,27.14
2019-04-21T10:44:25.237Z,26.55
2019-04-21T10:46:56.660Z,26.58
2019-04-21T10:52:57.010Z,26.59
2019-04-21T10:55:44.691Z,27.46
2019-04-21T10:58:08.711Z,25.36
2019-04-21T11:00:39.841Z,24.46
2019-04-21T11:03:26.980Z,27.35
2019-04-21T11:05:56.990Z,25.57
2019-04-21T11:08:32.568Z,26.33
2019-04-21T11:10:56.467Z,24.89
2019-04-21T11:13:30.600Z,25.02
2019-04-21T11:15:59.378Z,25.81
2019-04-21T11:18:30.071Z,26.55
2019-04-21T11:20:58.975Z,25.50
2019-04-21T11:23:27.353Z,23.81
2019-04-21T11:25:55.834Z,25.22
2019-04-21T11:28:31.639Z,23.86
2019-04-21T11:31:00.580Z,24.14
2019-04-21T11:33:29.154Z,23.35
2019-04-21T11:35:59.350Z,22.31
2019-04-21T11:39:00.761Z,23.67
2019-04-21T11:41:19.424Z,23.23
2019-04-21T11:43:48.827Z,23.67
2019-04-21T11:46:18.531Z,22.40
2019-04-21T11:48:48.267Z,22.81
2019-04-21T11:51:17.789Z,22.13
2019-04-21T11:53:46.595Z,22.67
2019-04-21T11:56:15.040Z,22.38
2019-04-21T11:58:43.915Z,21.52
2019-04-21T12:01:13.744Z,22.50
2019-04-21T12:03:42.294Z,22.63
2019-04-21T12:06:19.514Z,21.31
2019-04-21T12:08:51.504Z,22.88
2019-04-21T12:11:21.048Z,21.89
2019-04-21T12:13:49.950Z,23.22
2019-04-21T12:16:19.054Z,22.40
2019-04-21T12:18:47.500Z,23.00
2019-04-21T12:21:32.028Z,24.27
2019-04-21T12:23:52.878Z,24.13
2019-04-21T12:26:32.264Z,25.21
2019-04-21T12:29:03.917Z,25.44
2019-04-21T12:31:49.825Z,24.11
2019-04-21T12:34:19.462Z,23.97
2019-04-21T12:36:48.747Z,23.25
2019-04-21T12:39:21.184Z,23.34
2019-04-21T12:41:50.767Z,23.82
2019-04-21T12:44:20.535Z,23.32
2019-04-21T12:46:53.945Z,26.02
2019-04-21T12:49:22.404Z,24.83
2019-04-21T12:51:51.537Z,24.41
2019-04-21T12:54:23.821Z,24.61
2019-04-21T12:56:53.653Z,24.49
2019-04-21T12:59:24.651Z,23.77
2019-04-21T13:01:53.033Z,25.80
2019-04-21T13:04:23.934Z,24.67
2019-04-21T13:06:52.274Z,25.68
2019-04-21T13:09:22.126Z,24.75
2019-04-21T13:11:59.376Z,26.27
2019-04-21T13:14:29.511Z,24.76
2019-04-21T13:16:59.355Z,23.59
2019-04-21T13:19:29.288Z,23.99
2019-04-21T13:21:58.251Z,22.36
2019-04-21T13:24:26.649Z,24.63
2019-04-21T13:26:58.479Z,25.25
2019-04-21T13:29:32.309Z,25.24
2019-04-21T13:32:06.573Z,25.92
2019-04-21T13:34:35.927Z,25.73
2019-04-21T13:37:05.738Z,23.06
2019-04-21T13:40:19.492Z,22.59
2019-04-21T13:42:30.119Z,25.69
2019-04-21T13:44:56.226Z,23.14
2019-04-21T13:47:24.799Z,23.08
2019-04-21T13:49:56.061Z,22.14
2019-04-21T13:52:24.709Z,23.24
2019-04-21T13:54:53.790Z,23.55
2019-04-21T13:57:22.721Z,23.59
2019-04-21T13:59:51.393Z,23.04
2019-04-21T14:02:20.729Z,26.21
2019-04-21T14:04:49.691Z,22.78
2019-04-21T14:07:18.459Z,23.61
2019-04-21T14:09:55.280Z,22.81
2019-04-21T14:12:17.504Z,24.01
2019-04-21T14:14:46.405Z,23.40
2019-04-21T14:17:15.103Z,22.70
2019-04-21T14:19:43.615Z,23.83
2019-04-21T14:22:13.984Z,24.38
2019-04-21T14:24:43.785Z,23.38
2019-04-21T14:27:12.317Z,24.46
2019-04-21T14:29:41.750Z,24.73
2019-04-21T14:32:11.911Z,22.07
2019-04-21T14:34:40.301Z,22.59
2019-04-21T14:37:08.941Z,22.44
2019-04-21T14:39:49.514Z,21.75
2019-04-21T14:42:08.454Z,22.41
2019-04-21T14:44:38.749Z,23.53
2019-04-21T14:47:11.145Z,25.31
2019-04-21T14:49:47.146Z,22.22
2019-04-21T14:52:17.277Z,22.13
2019-04-21T14:54:48.835Z,22.07
2019-04-21T14:57:18.839Z,22.38
2019-04-21T14:59:48.974Z,22.70
2019-04-21T15:02:18.063Z,23.77
2019-04-21T15:04:46.613Z,23.12
2019-04-21T15:07:17.088Z,22.89
2019-04-21T15:09:46.438Z,23.03
2019-04-21T15:12:16.211Z,22.91
2019-04-21T15:14:44.909Z,23.19
2019-04-21T15:17:15.854Z,23.10
2019-04-21T15:19:54.050Z,23.20
2019-04-21T15:22:14.524Z,24.16
2019-04-21T15:24:44.281Z,23.39
2019-04-21T15:27:18.913Z,23.68
2019-04-21T15:29:46.921Z,24.53
2019-04-21T15:32:16.914Z,24.86
2019-04-21T15:34:48.202Z,25.18
2019-04-21T15:37:17.877Z,25.56
2019-04-21T15:39:48.800Z,24.67
2019-04-21T15:42:16.805Z,24.67
2019-04-21T15:44:45.443Z,26.49
2019-04-21T15:47:15.903Z,25.62
2019-04-21T15:50:00.880Z,26.65
2019-04-21T15:52:25.749Z,27.02
2019-04-21T15:55:03.157Z,29.77
2019-04-21T15:57:34.002Z,32.02
2019-04-21T16:00:08.746Z,32.11
2019-04-21T16:02:37.851Z,32.28
2019-04-21T16:05:10.887Z,32.97
2019-04-21T16:07:40.351Z,33.97
2019-04-21T16:10:26.528Z,32.91
2019-04-21T16:12:43.698Z,33.75
2019-04-21T16:17:55.394Z,33.47
2019-04-21T16:20:25.798Z,33.89
2019-04-21T16:22:54.943Z,33.41
2019-04-21T16:25:23.504Z,33.62
2019-04-21T16:27:53.266Z,33.91
2019-04-21T16:30:23.835Z,33.60
2019-04-21T16:32:52.438Z,34.17
2019-04-21T16:35:25.171Z,34.65
2019-04-21T16:37:55.282Z,34.28
2019-04-21T16:40:23.437Z,34.20
2019-04-21T16:42:54.271Z,34.99
2019-04-21T16:45:25.268Z,34.67
2019-04-21T16:47:55.552Z,34.80
2019-04-21T16:50:27.833Z,35.35
2019-04-21T16:52:59.601Z,34.80
2019-04-21T16:55:42.409Z,34.80
2019-04-21T16:58:19.762Z,34.30
2019-04-21T17:00:57.551Z,34.53
2019-04-21T17:03:19.022Z,35.73
2019-04-21T17:05:48.130Z,35.26
2019-04-21T17:08:19.792Z,36.40
2019-04-21T17:11:00.384Z,35.31
2019-04-21T17:13:20.240Z,35.12
2019-04-21T17:16:10.405Z,35.05
2019-04-21T17:18:39.491Z,36.09
2019-04-21T17:20:57.649Z,35.76
2019-04-21T17:23:25.273Z,36.62
2019-04-21T17:25:55.134Z,36.70
2019-04-21T17:28:25.691Z,35.84
2019-04-21T17:30:58.140Z,36.35
2019-04-21T17:33:28.018Z,36.40
2019-04-21T17:35:54.793Z,36.80
2019-04-21T17:38:25.866Z,37.19
2019-04-21T17:40:53.861Z,37.80
2019-04-21T17:43:23.761Z,37.93
2019-04-21T17:45:53.211Z,39.08
2019-04-21T17:48:25.091Z,37.57
2019-04-21T17:50:59.158Z,37.65
2019-04-21T17:53:38.264Z,38.04
2019-04-21T17:56:26.147Z,39.04
2019-04-21T17:58:53.577Z,38.85
2019-04-21T18:01:32.065Z,39.60
2019-04-21T18:03:58.527Z,39.40
2019-04-21T18:06:20.966Z,41.03
2019-04-21T18:08:54.838Z,40.19
2019-04-21T18:11:18.112Z,41.06
2019-04-21T18:13:47.280Z,41.05
2019-04-21T18:16:26.752Z,41.86
2019-04-21T18:18:46.627Z,40.94
2019-04-21T18:21:41.343Z,42.53
2019-04-21T18:24:19.413Z,43.44
2019-04-21T18:26:52.110Z,42.91
2019-04-21T18:29:19.193Z,44.26
2019-04-21T18:31:54.184Z,44.00
2019-04-21T18:34:42.855Z,45.01
2019-04-21T18:37:16.435Z,45.74
2019-04-21T18:40:18.790Z,46.21
2019-04-21T18:43:15.617Z,46.19
2019-04-21T18:45:53.334Z,46.68
2019-04-21T18:48:09.444Z,47.26
2019-04-21T18:50:55.141Z,47.44
2019-04-21T18:53:39.910Z,47.20
2019-04-21T18:55:58.254Z,47.42
2019-04-21T18:58:22.278Z,47.33
2019-04-21T19:00:53.025Z,47.84
2019-04-21T19:03:28.150Z,48.05
2019-04-21T19:05:56.960Z,47.08
2019-04-21T19:08:38.853Z,47.57
2019-04-21T19:11:14.848Z,48.01
2019-04-21T19:14:17.385Z,48.91
2019-04-21T19:16:34.675Z,48.88
2019-04-21T19:19:32.811Z,48.75
2019-04-21T19:21:24.469Z,49.58
2019-04-21T19:24:10.750Z,48.98
2019-04-21T19:26:49.735Z,49.42
2019-04-21T19:29:16.361Z,49.79
2019-04-21T19:31:39.909Z,49.87
2019-04-21T19:33:59.452Z,50.24
2019-04-21T19:36:21.568Z,50.40
2019-04-21T19:38:59.664Z,50.16
2019-04-21T19:41:32.487Z,50.08
2019-04-21T19:44:13.645Z,50.04
2019-04-21T19:46:38.295Z,49.93
2019-04-21T19:49:22.797Z,50.21
2019-04-21T19:51:36.470Z,50.35
2019-04-21T19:54:03.784Z,49.87
2019-04-21T19:56:26.314Z,49.65
2019-04-21T19:58:57.048Z,49.39
2019-04-21T20:01:25.580Z,49.91
2019-04-21T20:03:57.881Z,49.96
2019-04-21T20:06:39.264Z,49.43
2019-04-21T20:09:13.819Z,49.65
2019-04-21T20:11:41.979Z,49.55
2019-04-21T20:14:44.528Z,49.49
2019-04-21T20:16:45.544Z,49.63
2019-04-21T20:19:02.350Z,49.70
2019-04-21T20:21:26.833Z,48.97
2019-04-21T20:24:02.482Z,49.20
2019-04-21T20:26:36.775Z,49.98
2019-04-21T20:29:15.488Z,49.40
2019-04-21T20:31:47.845Z,48.98
2019-04-21T20:34:31.979Z,50.40
2019-04-21T20:37:00.364Z,49.56
2019-04-21T20:39:16.518Z,49.85
2019-04-21T20:41:48.305Z,49.35
2019-04-21T20:44:29.660Z,49.66
2019-04-21T20:46:55.481Z,49.50
2019-04-21T20:49:21.736Z,50.13
2019-04-21T20:52:08.121Z,50.81
2019-04-21T20:54:33.769Z,50.96
2019-04-21T20:57:03.241Z,50.43
2019-04-21T20:59:25.368Z,50.51
2019-04-21T21:02:05.511Z,49.91
2019-04-21T21:04:30.085Z,51.72
2019-04-21T21:07:20.603Z,50.79
2019-04-21T21:09:41.367Z,51.63
2019-04-21T21:12:22.622Z,51.97
2019-04-21T21:14:36.464Z,52.77
2019-04-21T21:17:26.630Z,53.86
2019-04-21T21:19:45.658Z,53.83
2019-04-21T21:22:10.959Z,53.06
2019-04-21T21:24:53.540Z,54.21
2019-04-21T21:27:29.166Z,52.79
2019-04-21T21:29:56.695Z,51.42
2019-04-21T21:32:32.155Z,51.41
2019-04-21T21:35:13.071Z,51.02
2019-04-21T21:37:42.800Z,51.11
2019-04-21T21:40:21.863Z,50.90
2019-04-21T21:42:35.327Z,50.81
2019-04-21T21:45:08.736Z,50.76
2019-04-21T21:47:57.996Z,50.88
2019-04-21T21:50:11.554Z,50.78
2019-04-21T21:52:50.185Z,50.83
2019-04-21T21:55:21.521Z,51.09
2019-04-21T21:58:01.069Z,51.03
2019-04-21T22:00:37.012Z,51.34
2019-04-21T22:03:16.361Z,51.81
2019-04-21T22:05:46.528Z,51.73
2019-04-21T22:08:06.824Z,52.13
2019-04-21T22:10:43.302Z,51.80
2019-04-21T22:13:14.702Z,52.31
2019-04-21T22:15:49.337Z,52.11
2019-04-21T22:18:33.350Z,52.03
2019-04-21T22:21:02.262Z,52.50
2019-04-21T22:23:34.866Z,54.22
2019-04-21T22:25:49.299Z,53.76
2019-04-21T22:28:17.864Z,53.52
2019-04-21T22:30:50.872Z,53.83
2019-04-21T22:33:22.873Z,54.71
2019-04-21T22:35:59.255Z,55.00
2019-04-21T22:38:38.666Z,54.78
2019-04-21T22:41:10.072Z,55.02
2019-04-21T22:43:44.376Z,54.70
2019-04-21T22:46:14.037Z,55.05
2019-04-21T22:48:53.204Z,55.51
2019-04-21T22:51:23.737Z,55.32
2019-04-21T22:53:50.361Z,55.86
2019-04-21T22:56:23.626Z,56.04
2019-04-21T22:58:48.298Z,56.78
2019-04-21T23:01:28.539Z,57.39
2019-04-21T23:03:55.592Z,57.54
2019-04-21T23:06:25.481Z,57.93
2019-04-21T23:08:51.202Z,58.27
2019-04-21T23:11:20.205Z,57.76
2019-04-21T23:13:55.671Z,57.56
2019-04-21T23:16:26.150Z,56.88
2019-04-21T23:19:11.467Z,58.24
2019-04-21T23:21:51.463Z,58.31
2019-04-21T23:24:14.860Z,58.08
2019-04-21T23:26:48.666Z,58.35
2019-04-21T23:29:31.067Z,58.87
2019-04-21T23:31:55.037Z,56.71
2019-04-21T23:34:13.367Z,59.04
2019-04-21T23:36:48.294Z,57.86
2019-04-21T23:39:15.990Z,58.88
2019-04-21T23:41:46.069Z,58.94
2019-04-21T23:44:13.647Z,58.71
2019-04-21T23:46:40.909Z,59.86
2019-04-21T23:49:22.836Z,60.02
2019-04-21T23:51:50.612Z,60.70
2019-04-21T23:54:13.328Z,59.14
2019-04-21T23:56:45.691Z,59.71
2019-04-21T23:59:17.928Z,58.98
